createdAt,value
2024-02-23T00:00:20.704Z,-23335.19
2024-02-23T00:02:23.429Z,-23340.44
2024-02-23T00:04:26.190Z,-23332.31
2024-02-23T00:06:29.611Z,-23332.66
2024-02-23T00:08:35.748Z,-23330.09
2024-02-23T00:10:40.232Z,-23334.88
2024-02-23T00:12:44.904Z,-23334.56
2024-02-23T00:14:47.600Z,-23330.88
2024-02-23T00:16:50.498Z,-23332.81
2024-02-23T00:18:53.623Z,-23334.56
2024-02-23T00:21:02.388Z,-23329.31
2024-02-23T00:23:05.467Z,-23332.00
2024-02-23T00:25:08.789Z,-23329.78
2024-02-23T00:27:19.726Z,-23331.38
2024-02-23T00:29:23.415Z,-23335.34
2024-02-23T00:31:26.566Z,-23332.81
2024-02-23T00:33:31.272Z,-23331.22
2024-02-23T00:35:34.030Z,-23330.25
2024-02-23T00:37:36.995Z,-23331.84
2024-02-23T00:39:39.767Z,-23333.59
2024-02-23T00:41:42.616Z,-23332.81
2024-02-23T00:43:50.802Z,-23332.47
2024-02-23T00:45:53.537Z,-23332.47
2024-02-23T00:47:56.379Z,-23332.31
2024-02-23T00:49:59.263Z,-23332.31
2024-02-23T00:52:05.961Z,-23334.56
2024-02-23T00:54:09.105Z,-23334.41
2024-02-23T00:56:11.995Z,-23333.28
2024-02-23T00:58:19.353Z,-23335.03
2024-02-23T01:00:24.583Z,-23332.16
2024-02-23T01:02:27.529Z,-23331.22
2024-02-23T01:04:34.084Z,-23332.47
2024-02-23T01:06:36.891Z,-23333.44
2024-02-23T01:08:41.292Z,-23332.16
2024-02-23T01:10:44.108Z,-23332.81
2024-02-23T01:12:45.984Z,-23332.00
2024-02-23T01:14:49.475Z,-23331.38
2024-02-23T01:16:56.506Z,-23332.16
2024-02-23T01:18:59.381Z,-23330.41
2024-02-23T01:21:02.400Z,-23330.25
2024-02-23T01:23:17.203Z,-23329.31
2024-02-23T01:25:20.541Z,-23328.97
2024-02-23T01:27:23.259Z,-23330.25
2024-02-23T01:29:30.425Z,-23328.19
2024-02-23T01:31:33.226Z,-23328.81
2024-02-23T01:33:38.988Z,-23328.97
2024-02-23T01:35:42.021Z,-23330.56
2024-02-23T01:37:43.781Z,-23328.66
2024-02-23T01:39:46.563Z,-23326.28
2024-02-23T01:41:48.522Z,-23325.47
2024-02-23T01:43:52.244Z,-23326.59
2024-02-23T01:45:56.169Z,-23327.06
2024-02-23T01:47:58.109Z,-23325.16
2024-02-23T01:50:02.596Z,-23326.59
2024-02-23T01:52:06.807Z,-23328.66
2024-02-23T01:54:11.497Z,-23327.38
2024-02-23T01:56:19.966Z,-23326.44
2024-02-23T01:58:22.600Z,-23327.22
2024-02-23T02:00:25.571Z,-23325.63
2024-02-23T02:02:29.191Z,-23323.56
2024-02-23T02:04:31.979Z,-23323.41
2024-02-23T02:06:37.667Z,-23322.63
2024-02-23T02:08:39.945Z,-23321.19
2024-02-23T02:10:43.816Z,-23321.66
2024-02-23T02:12:48.648Z,-23320.72
2024-02-23T02:14:57.465Z,-23318.97
2024-02-23T02:17:00.230Z,-23318.78
2024-02-23T02:19:02.994Z,-23319.75
2024-02-23T02:21:06.371Z,-23316.25
2024-02-23T02:23:11.980Z,-23314.50
2024-02-23T02:25:15.414Z,-23314.19
2024-02-23T02:27:18.144Z,-23311.16
2024-02-23T02:29:20.961Z,-23308.28
2024-02-23T02:31:23.737Z,-23310.19
2024-02-23T02:33:27.719Z,-23307.97
2024-02-23T02:35:30.547Z,-23308.75
2024-02-23T02:37:33.496Z,-23306.69
2024-02-23T02:39:38.159Z,-23307.16
2024-02-23T02:41:40.981Z,-23306.06
2024-02-23T02:43:43.634Z,-23305.25
2024-02-23T02:45:46.385Z,-23303.97
2024-02-23T02:47:49.597Z,-23304.78
2024-02-23T02:49:52.506Z,-23303.03
2024-02-23T02:51:55.310Z,-23302.22
2024-02-23T02:53:58.284Z,-23303.19
2024-02-23T02:56:12.838Z,-23302.88
2024-02-23T02:58:15.138Z,-23302.88
2024-02-23T03:00:18.382Z,-23299.84
2024-02-23T03:02:21.118Z,-23303.34
2024-02-23T03:04:23.853Z,-23300.16
2024-02-23T03:06:26.615Z,-23300.31
2024-02-23T03:08:31.731Z,-23300.97
2024-02-23T03:10:34.554Z,-23302.22
2024-02-23T03:12:38.688Z,-23302.88
2024-02-23T03:14:42.186Z,-23304.78
2024-02-23T03:16:48.930Z,-23305.41
2024-02-23T03:18:54.671Z,-23308.59
2024-02-23T03:20:57.716Z,-23310.19
2024-02-23T03:23:00.460Z,-23307.00
2024-02-23T03:25:09.086Z,-23308.28
2024-02-23T03:27:12.012Z,-23307.97
2024-02-23T03:29:17.005Z,-23307.66
2024-02-23T03:31:21.713Z,-23310.34
2024-02-23T03:33:24.592Z,-23315.59
2024-02-23T03:35:27.473Z,-23317.53
2024-02-23T03:37:30.327Z,-23318.47
2024-02-23T03:39:33.770Z,-23316.56
2024-02-23T03:41:36.670Z,-23319.91
2024-02-23T03:43:44.090Z,-23318.16
2024-02-23T03:45:48.141Z,-23318.00
2024-02-23T03:47:51.231Z,-23315.44
2024-02-23T03:49:58.865Z,-23320.38
2024-02-23T03:52:01.554Z,-23318.16
2024-02-23T03:54:04.491Z,-23317.03
2024-02-23T03:56:07.877Z,-23318.63
2024-02-23T03:58:14.557Z,-23319.75
2024-02-23T04:00:17.710Z,-23315.59
2024-02-23T04:02:21.846Z,-23316.88
2024-02-23T04:04:24.724Z,-23315.28
2024-02-23T04:06:27.649Z,-23314.66
2024-02-23T04:08:30.508Z,-23315.44
2024-02-23T04:10:32.318Z,-23313.38
2024-02-23T04:12:36.268Z,-23314.03
2024-02-23T04:14:39.162Z,-23316.56
2024-02-23T04:16:42.442Z,-23316.25
2024-02-23T04:18:48.090Z,-23314.19
2024-02-23T04:20:50.857Z,-23314.66
2024-02-23T04:22:53.820Z,-23312.75
2024-02-23T04:24:55.654Z,-23312.59
2024-02-23T04:26:59.766Z,-23309.56
2024-02-23T04:29:02.595Z,-23308.44
2024-02-23T04:31:04.518Z,-23308.28
2024-02-23T04:33:08.293Z,-23310.34
2024-02-23T04:35:15.543Z,-23310.34
2024-02-23T04:37:18.293Z,-23309.09
2024-02-23T04:39:20.962Z,-23310.84
2024-02-23T04:41:26.764Z,-23312.75
2024-02-23T04:43:29.529Z,-23311.63
2024-02-23T04:45:31.247Z,-23312.09
2024-02-23T04:47:34.715Z,-23311.78
2024-02-23T04:49:36.705Z,-23311.78
2024-02-23T04:51:45.824Z,-23308.28
2024-02-23T04:53:48.617Z,-23307.16
2024-02-23T04:55:51.450Z,-23308.28
2024-02-23T04:57:54.555Z,-23310.19
2024-02-23T04:59:57.415Z,-23311.47
2024-02-23T05:02:00.196Z,-23305.41
2024-02-23T05:04:03.078Z,-23305.75
2024-02-23T05:06:06.785Z,-23307.50
2024-02-23T05:08:10.941Z,-23306.38
2024-02-23T05:10:13.966Z,-23305.41
2024-02-23T05:12:18.929Z,-23307.00
2024-02-23T05:14:21.742Z,-23305.75
2024-02-23T05:16:24.419Z,-23302.72
2024-02-23T05:18:27.407Z,-23303.97
2024-02-23T05:20:32.513Z,-23303.81
2024-02-23T05:22:35.288Z,-23300.47
2024-02-23T05:24:39.478Z,-23297.78
2024-02-23T05:26:45.863Z,-23300.00
2024-02-23T05:28:49.038Z,-23298.41
2024-02-23T05:30:51.921Z,-23297.78
2024-02-23T05:32:56.621Z,-23295.88
2024-02-23T05:34:59.548Z,-23296.34
2024-02-23T05:37:01.525Z,-23294.44
2024-02-23T05:39:08.095Z,-23294.28
2024-02-23T05:41:15.144Z,-23295.88
2024-02-23T05:43:18.100Z,-23292.53
2024-02-23T05:45:21.009Z,-23293.16
2024-02-23T05:47:23.881Z,-23294.28
2024-02-23T05:49:27.039Z,-23292.69
2024-02-23T05:51:37.403Z,-23291.72
2024-02-23T05:53:40.126Z,-23291.25
2024-02-23T05:55:43.032Z,-23290.13
2024-02-23T05:57:47.785Z,-23289.19
2024-02-23T05:59:52.921Z,-23290.13
2024-02-23T06:01:59.971Z,-23287.41
2024-02-23T06:04:02.765Z,-23288.06
2024-02-23T06:06:09.210Z,-23285.03
2024-02-23T06:08:15.384Z,-23285.50
2024-02-23T06:10:18.389Z,-23284.22
2024-02-23T06:12:21.020Z,-23287.91
2024-02-23T06:14:25.334Z,-23286.16
2024-02-23T06:16:28.087Z,-23289.19
2024-02-23T06:18:30.853Z,-23288.84
2024-02-23T06:20:38.999Z,-23287.41
2024-02-23T06:22:41.924Z,-23281.53
2024-02-23T06:24:44.659Z,-23281.53
2024-02-23T06:26:50.150Z,-23281.53
2024-02-23T06:28:55.962Z,-23281.19
2024-02-23T06:31:00.204Z,-23281.53
2024-02-23T06:33:03.097Z,-23280.25
2024-02-23T06:35:07.514Z,-23281.53
2024-02-23T06:37:14.897Z,-23282.47
2024-02-23T06:39:19.430Z,-23283.28
2024-02-23T06:41:22.371Z,-23284.38
2024-02-23T06:43:24.128Z,-23287.25
2024-02-23T06:45:27.108Z,-23284.06
2024-02-23T06:47:35.007Z,-23285.66
2024-02-23T06:49:38.052Z,-23285.03
2024-02-23T06:51:41.955Z,-23286.63
2024-02-23T06:53:44.668Z,-23286.94
2024-02-23T06:55:47.369Z,-23289.31
2024-02-23T06:57:50.752Z,-23288.53
2024-02-23T06:59:53.944Z,-23291.09
2024-02-23T07:01:57.205Z,-23290.94
2024-02-23T07:04:01.420Z,-23292.03
2024-02-23T07:06:04.289Z,-23289.97
2024-02-23T07:08:08.025Z,-23293.31
2024-02-23T07:10:11.801Z,-23290.44
2024-02-23T07:12:15.157Z,-23291.09
2024-02-23T07:14:23.194Z,-23289.66
2024-02-23T07:16:26.219Z,-23289.50
2024-02-23T07:18:29.376Z,-23286.94
2024-02-23T07:20:33.630Z,-23285.34
2024-02-23T07:22:37.662Z,-23285.81
2024-02-23T07:24:41.016Z,-23289.50
2024-02-23T07:26:43.834Z,-23289.81
2024-02-23T07:28:46.625Z,-23293.16
2024-02-23T07:30:49.423Z,-23294.59
2024-02-23T07:32:53.584Z,-23296.19
2024-02-23T07:34:56.685Z,-23296.81
2024-02-23T07:37:00.805Z,-23299.38
2024-02-23T07:39:04.288Z,-23298.09
2024-02-23T07:41:11.556Z,-23301.28
2024-02-23T07:43:14.377Z,-23304.31
2024-02-23T07:45:17.147Z,-23304.78
2024-02-23T07:47:19.897Z,-23304.31
2024-02-23T07:49:23.402Z,-23304.31
2024-02-23T07:51:26.188Z,-23301.28
2024-02-23T07:53:30.437Z,-23301.59
2024-02-23T07:55:32.193Z,-23302.88
2024-02-23T07:57:36.878Z,-23303.19
2024-02-23T07:59:38.642Z,-23303.66
2024-02-23T08:01:42.691Z,-23303.50
2024-02-23T08:03:45.431Z,-23300.81
2024-02-23T08:05:48.326Z,-23305.09
2024-02-23T08:07:51.352Z,-23303.81
2024-02-23T08:09:56.012Z,-23304.31
2024-02-23T08:11:58.879Z,-23306.38
2024-02-23T08:14:07.849Z,-23311.78
2024-02-23T08:16:10.649Z,-23315.59
2024-02-23T08:18:13.525Z,-23308.75
2024-02-23T08:20:16.709Z,-23310.19
2024-02-23T08:22:18.466Z,-23307.97
2024-02-23T08:24:21.280Z,-23312.09
2024-02-23T08:26:25.479Z,-23311.16
2024-02-23T08:28:28.260Z,-23309.56
2024-02-23T08:30:30.997Z,-23312.59
2024-02-23T08:32:33.835Z,-23314.34
2024-02-23T08:34:36.871Z,-23316.41
2024-02-23T08:36:39.845Z,-23311.78
2024-02-23T08:38:42.697Z,-23311.16
2024-02-23T08:40:46.396Z,-23309.09
2024-02-23T08:42:51.208Z,-23311.47
2024-02-23T08:44:59.023Z,-23313.84
2024-02-23T08:47:03.103Z,-23314.19
2024-02-23T08:49:05.823Z,-23311.94
2024-02-23T08:51:08.610Z,-23311.78
2024-02-23T08:53:11.641Z,-23313.06
2024-02-23T08:55:14.579Z,-23315.78
2024-02-23T08:57:20.352Z,-23314.34
2024-02-23T08:59:24.516Z,-23311.78
2024-02-23T09:01:26.405Z,-23312.75
2024-02-23T09:03:29.143Z,-23313.53
2024-02-23T09:05:31.956Z,-23316.88
2024-02-23T09:07:34.783Z,-23317.19
2024-02-23T09:09:38.008Z,-23320.38
2024-02-23T09:11:40.930Z,-23322.94
2024-02-23T09:13:43.808Z,-23319.75
2024-02-23T09:15:47.919Z,-23320.06
2024-02-23T09:17:50.775Z,-23321.81
2024-02-23T09:19:56.731Z,-23316.88
2024-02-23T09:22:01.190Z,-23317.19
2024-02-23T09:24:04.004Z,-23318.47
2024-02-23T09:26:12.263Z,-23325.81
2024-02-23T09:28:16.895Z,-23332.16
2024-02-23T09:30:19.864Z,-23325.00
2024-02-23T09:32:24.252Z,-23321.34
2024-02-23T09:34:26.227Z,-23324.69
2024-02-23T09:36:32.277Z,-23327.22
2024-02-23T09:38:35.179Z,-23325.16
2024-02-23T09:40:38.191Z,-23331.69
2024-02-23T09:42:41.486Z,-23330.41
2024-02-23T09:44:46.766Z,-23339.50
2024-02-23T09:46:50.491Z,-23344.09
2024-02-23T09:48:57.233Z,-23357.47
2024-02-23T09:51:00.009Z,-23349.34
2024-02-23T09:53:06.175Z,-23363.03
2024-02-23T09:55:09.215Z,-23371.94
2024-02-23T09:57:19.932Z,-23396.09
2024-02-23T09:59:22.832Z,-23388.78
2024-02-23T10:01:29.957Z,-23394.50
2024-02-23T10:03:33.323Z,-23384.97
2024-02-23T10:05:40.014Z,-23366.06
2024-02-23T10:07:45.513Z,-23357.31
2024-02-23T10:09:48.677Z,-23371.63
2024-02-23T10:11:54.526Z,-23372.56
2024-02-23T10:13:57.384Z,-23374.81
2024-02-23T10:16:10.760Z,-23364.94
2024-02-23T10:18:18.554Z,-23362.72
2024-02-23T10:20:21.320Z,-23363.03
2024-02-23T10:22:26.178Z,-23372.25
2024-02-23T10:24:29.196Z,-23375.91
2024-02-23T10:26:31.996Z,-23370.66
2024-02-23T10:28:35.575Z,-23381.47
2024-02-23T10:30:40.122Z,-23374.31
2024-02-23T10:32:43.618Z,-23362.56
2024-02-23T10:34:49.621Z,-23363.03
2024-02-23T10:36:54.209Z,-23366.53
2024-02-23T10:39:01.752Z,-23364.94
2024-02-23T10:41:07.525Z,-23355.72
2024-02-23T10:43:14.470Z,-23358.91
2024-02-23T10:45:18.864Z,-23363.03
2024-02-23T10:47:23.758Z,-23370.34
2024-02-23T10:49:28.374Z,-23361.13
2024-02-23T10:51:33.016Z,-23358.59
2024-02-23T10:53:37.150Z,-23368.28
2024-02-23T10:55:44.875Z,-23374.00
2024-02-23T10:57:50.297Z,-23359.53
2024-02-23T10:59:53.175Z,-23367.97
2024-02-23T11:01:59.539Z,-23381.16
2024-02-23T11:04:02.961Z,-23379.72
2024-02-23T11:06:09.153Z,-23373.22
2024-02-23T11:08:12.268Z,-23364.31
2024-02-23T11:10:15.915Z,-23371.47
2024-02-23T11:12:25.926Z,-23366.69
2024-02-23T11:14:32.801Z,-23370.34
2024-02-23T11:16:36.008Z,-23380.06
2024-02-23T11:18:41.443Z,-23371.78
2024-02-23T11:20:45.309Z,-23374.97
2024-02-23T11:22:54.191Z,-23377.97
2024-02-23T11:25:02.266Z,-23374.50
2024-02-23T11:27:09.394Z,-23382.75
2024-02-23T11:29:16.241Z,-23374.81
2024-02-23T11:31:22.306Z,-23375.44
2024-02-23T11:33:28.782Z,-23372.56
2024-02-23T11:35:31.935Z,-23375.28
2024-02-23T11:37:34.894Z,-23373.22
2024-02-23T11:39:39.738Z,-23372.91
2024-02-23T11:41:42.777Z,-23376.72
2024-02-23T11:43:47.905Z,-23388.31
2024-02-23T11:45:52.744Z,-23386.88
2024-02-23T11:47:55.745Z,-23390.53
2024-02-23T11:49:58.926Z,-23379.09
2024-02-23T11:52:01.701Z,-23391.66
2024-02-23T11:54:04.285Z,-23394.19
2024-02-23T11:56:07.824Z,-23391.34
2024-02-23T12:00:14.996Z,-23397.84
2024-02-23T12:02:19.049Z,-23383.38
2024-02-23T12:04:21.841Z,-23383.53
2024-02-23T12:06:25.183Z,-23399.59
2024-02-23T12:08:27.585Z,-23391.00
2024-02-23T12:10:31.211Z,-23401.50
2024-02-23T12:12:34.120Z,-23399.28
2024-02-23T12:14:37.879Z,-23396.56
2024-02-23T12:16:42.150Z,-23395.94
2024-02-23T12:18:45.394Z,-23400.53
2024-02-23T12:20:49.960Z,-23384.66
2024-02-23T12:22:52.761Z,-23393.88
2024-02-23T12:24:58.875Z,-23382.75
2024-02-23T12:27:01.879Z,-23384.81
2024-02-23T12:29:05.450Z,-23387.34
2024-02-23T12:31:08.854Z,-23389.25
2024-02-23T12:33:12.306Z,-23398.31
2024-02-23T12:35:17.298Z,-23395.94
2024-02-23T12:37:20.492Z,-23401.19
2024-02-23T12:39:27.655Z,-23399.44
2024-02-23T12:41:33.314Z,-23389.59
2024-02-23T12:43:38.807Z,-23391.97
2024-02-23T12:45:45.192Z,-23393.22
2024-02-23T12:47:48.172Z,-23388.16
2024-02-23T12:49:51.033Z,-23386.56
2024-02-23T12:51:55.225Z,-23388.31
2024-02-23T12:53:58.272Z,-23378.78
2024-02-23T12:56:00.224Z,-23385.13
2024-02-23T12:58:02.973Z,-23383.69
2024-02-23T13:00:06.525Z,-23385.94
2024-02-23T13:02:11.074Z,-23378.31
2024-02-23T13:04:15.172Z,-23379.88
2024-02-23T13:06:18.076Z,-23375.75
2024-02-23T13:08:22.990Z,-23378.63
2024-02-23T13:10:25.810Z,-23381.47
2024-02-23T13:12:28.706Z,-23383.69
2024-02-23T13:14:31.538Z,-23394.81
2024-02-23T13:16:34.403Z,-23399.75
2024-02-23T13:18:37.208Z,-23393.22
2024-02-23T13:20:42.692Z,-23398.00
2024-02-23T13:22:45.415Z,-23403.41
2024-02-23T13:24:49.434Z,-23406.28
2024-02-23T13:26:52.142Z,-23406.91
2024-02-23T13:28:55.188Z,-23399.91
2024-02-23T13:31:00.713Z,-23408.34
2024-02-23T13:33:04.134Z,-23394.50
2024-02-23T13:35:09.863Z,-23394.50
2024-02-23T13:37:12.659Z,-23395.16
2024-02-23T13:39:15.327Z,-23400.22
2024-02-23T13:41:19.686Z,-23391.00
2024-02-23T13:43:22.533Z,-23396.41
2024-02-23T13:45:25.869Z,-23393.88
2024-02-23T13:47:29.118Z,-23396.56
2024-02-23T13:49:32.075Z,-23389.75
2024-02-23T13:51:35.675Z,-23388.00
2024-02-23T13:53:39.089Z,-23397.53
2024-02-23T13:55:43.492Z,-23393.41
2024-02-23T13:57:47.562Z,-23387.03
2024-02-23T13:59:50.330Z,-23399.91
2024-02-23T14:01:54.135Z,-23396.72
2024-02-23T14:03:57.373Z,-23402.13
2024-02-23T14:06:00.288Z,-23404.03
2024-02-23T14:08:04.294Z,-23398.66
2024-02-23T14:10:09.885Z,-23401.81
2024-02-23T14:12:12.654Z,-23390.84
2024-02-23T14:14:17.621Z,-23395.78
2024-02-23T14:16:20.571Z,-23399.59
2024-02-23T14:18:22.324Z,-23405.16
2024-02-23T14:20:25.074Z,-23410.25
2024-02-23T14:22:28.851Z,-23418.34
2024-02-23T14:24:31.591Z,-23412.63
2024-02-23T14:26:34.514Z,-23414.69
2024-02-23T14:28:37.638Z,-23409.59
2024-02-23T14:30:44.186Z,-23414.69
2024-02-23T14:32:47.324Z,-23408.00
2024-02-23T14:34:50.883Z,-23411.34
2024-02-23T14:36:53.670Z,-23413.56
2024-02-23T14:38:58.920Z,-23407.69
2024-02-23T14:41:01.876Z,-23409.44
2024-02-23T14:43:04.924Z,-23408.81
2024-02-23T14:45:08.988Z,-23417.06
2024-02-23T14:47:13.839Z,-23420.88
2024-02-23T14:49:15.785Z,-23421.34
2024-02-23T14:51:18.514Z,-23401.81
2024-02-23T14:53:21.531Z,-23409.13
2024-02-23T14:55:24.409Z,-23410.25
2024-02-23T14:57:27.225Z,-23413.88
2024-02-23T14:59:30.000Z,-23411.34
2024-02-23T15:01:31.961Z,-23406.28
2024-02-23T15:03:36.904Z,-23403.41
2024-02-23T15:05:39.752Z,-23401.50
2024-02-23T15:07:42.678Z,-23404.34
2024-02-23T15:09:45.366Z,-23403.41
2024-02-23T15:11:48.230Z,-23400.88
2024-02-23T15:13:50.304Z,-23405.31
2024-02-23T15:15:53.185Z,-23406.28
2024-02-23T15:17:56.346Z,-23404.69
2024-02-23T15:20:01.464Z,-23401.81
2024-02-23T15:22:04.345Z,-23400.06
2024-02-23T15:24:07.782Z,-23401.03
2024-02-23T15:26:11.968Z,-23400.88
2024-02-23T15:28:14.416Z,-23400.53
2024-02-23T15:30:18.093Z,-23405.00
2024-02-23T15:32:23.244Z,-23405.00
2024-02-23T15:34:26.244Z,-23404.69
2024-02-23T15:36:30.455Z,-23400.06
2024-02-23T15:38:32.187Z,-23398.47
2024-02-23T15:40:34.925Z,-23403.41
2024-02-23T15:42:38.040Z,-23410.25
2024-02-23T15:44:41.006Z,-23407.69
2024-02-23T15:46:43.818Z,-23405.00
2024-02-23T15:48:46.653Z,-23399.28
2024-02-23T15:51:06.510Z,-23398.00
2024-02-23T15:53:12.777Z,-23399.28
2024-02-23T15:55:15.768Z,-23399.28
2024-02-23T15:57:18.563Z,-23395.16
2024-02-23T15:59:21.417Z,-23396.56
2024-02-23T16:01:24.196Z,-23398.00
2024-02-23T16:03:26.983Z,-23392.59
2024-02-23T16:05:29.894Z,-23394.50
2024-02-23T16:07:32.785Z,-23399.59
2024-02-23T16:09:37.163Z,-23393.56
2024-02-23T16:11:39.958Z,-23396.09
2024-02-23T16:13:42.801Z,-23398.00
2024-02-23T16:15:45.579Z,-23397.06
2024-02-23T16:17:48.564Z,-23398.66
2024-02-23T16:19:51.788Z,-23397.38
2024-02-23T16:21:54.825Z,-23395.16
2024-02-23T16:23:58.054Z,-23390.38
2024-02-23T16:26:02.914Z,-23392.91
2024-02-23T16:28:05.811Z,-23389.25
2024-02-23T16:30:08.776Z,-23387.03
2024-02-23T16:32:11.549Z,-23392.59
2024-02-23T16:34:14.395Z,-23389.09
2024-02-23T16:36:18.489Z,-23392.91
2024-02-23T16:38:22.073Z,-23394.19
2024-02-23T16:40:29.494Z,-23393.56
2024-02-23T16:42:33.858Z,-23393.88
2024-02-23T16:44:37.390Z,-23389.44
2024-02-23T16:46:40.128Z,-23390.69
2024-02-23T16:48:43.103Z,-23394.50
2024-02-23T16:50:47.830Z,-23390.06
2024-02-23T16:52:51.016Z,-23386.25
2024-02-23T16:54:54.121Z,-23389.91
2024-02-23T16:57:00.403Z,-23386.56
2024-02-23T16:59:04.568Z,-23384.97
2024-02-23T17:01:09.036Z,-23388.78
2024-02-23T17:03:11.944Z,-23383.06
2024-02-23T17:05:14.690Z,-23382.75
2024-02-23T17:07:17.422Z,-23383.53
2024-02-23T17:09:20.265Z,-23380.22
2024-02-23T17:11:22.996Z,-23377.34
2024-02-23T17:13:26.632Z,-23376.06
2024-02-23T17:15:31.688Z,-23376.06
2024-02-23T17:17:35.888Z,-23376.22
2024-02-23T17:19:40.057Z,-23380.69
2024-02-23T17:21:42.943Z,-23374.50
2024-02-23T17:23:45.729Z,-23374.16
2024-02-23T17:25:47.443Z,-23376.72
2024-02-23T17:27:51.229Z,-23373.84
2024-02-23T17:29:53.127Z,-23376.41
2024-02-23T17:31:57.642Z,-23374.16
2024-02-23T17:34:00.568Z,-23376.72
2024-02-23T17:36:04.038Z,-23376.06
2024-02-23T17:38:07.228Z,-23371.00
2024-02-23T17:40:12.074Z,-23371.16
2024-02-23T17:42:21.998Z,-23370.66
2024-02-23T17:44:28.450Z,-23367.34
2024-02-23T17:46:30.293Z,-23367.66
2024-02-23T17:48:34.327Z,-23367.66
2024-02-23T17:50:37.126Z,-23369.72
2024-02-23T17:52:40.127Z,-23369.06
2024-02-23T17:54:42.882Z,-23366.84
2024-02-23T17:56:45.627Z,-23364.78
2024-02-23T17:58:47.372Z,-23364.31
2024-02-23T18:00:50.298Z,-23364.31
2024-02-23T18:02:53.137Z,-23361.75
2024-02-23T18:04:58.206Z,-23361.94
2024-02-23T18:07:02.012Z,-23359.38
2024-02-23T18:09:06.793Z,-23360.81
2024-02-23T18:11:09.656Z,-23358.25
2024-02-23T18:13:13.570Z,-23355.25
2024-02-23T18:15:16.503Z,-23354.44
2024-02-23T18:17:19.208Z,-23354.75
2024-02-23T18:19:22.257Z,-23354.13
2024-02-23T18:21:26.348Z,-23350.16
2024-02-23T18:23:29.203Z,-23349.03
2024-02-23T18:25:32.049Z,-23348.22
2024-02-23T18:27:34.690Z,-23346.16
2024-02-23T18:29:37.794Z,-23344.25
2024-02-23T18:31:39.781Z,-23344.25
2024-02-23T18:33:42.584Z,-23341.41
2024-02-23T18:35:45.494Z,-23342.50
2024-02-23T18:37:49.627Z,-23340.44
2024-02-23T18:39:53.329Z,-23339.16
2024-02-23T18:41:56.062Z,-23339.50
2024-02-23T18:43:59.411Z,-23336.94
2024-02-23T18:46:02.472Z,-23338.06
2024-02-23T18:48:10.245Z,-23337.56
2024-02-23T18:50:13.019Z,-23338.84
2024-02-23T18:52:16.232Z,-23339.00
2024-02-23T18:54:20.301Z,-23337.75
2024-02-23T18:56:22.118Z,-23335.81
2024-02-23T18:58:24.915Z,-23335.50
2024-02-23T19:00:27.894Z,-23335.97
2024-02-23T19:02:33.347Z,-23333.91
2024-02-23T19:04:36.060Z,-23333.13
2024-02-23T19:06:38.916Z,-23331.84
2024-02-23T19:08:40.883Z,-23330.09
2024-02-23T19:10:45.164Z,-23330.25
2024-02-23T19:12:48.016Z,-23329.63
2024-02-23T19:14:50.885Z,-23328.66
2024-02-23T19:16:53.638Z,-23327.56
2024-02-23T19:18:57.094Z,-23325.31
2024-02-23T19:21:00.102Z,-23325.31
2024-02-23T19:23:04.607Z,-23320.06
2024-02-23T19:25:10.694Z,-23321.34
2024-02-23T19:27:14.838Z,-23320.06
2024-02-23T19:29:23.433Z,-23320.88
2024-02-23T19:31:27.570Z,-23321.03
2024-02-23T19:33:30.671Z,-23318.47
2024-02-23T19:35:33.533Z,-23319.09
2024-02-23T19:37:37.526Z,-23317.84
2024-02-23T19:39:41.585Z,-23316.09
2024-02-23T19:41:45.123Z,-23315.94
2024-02-23T19:43:49.385Z,-23312.44
2024-02-23T19:46:03.736Z,-23311.63
2024-02-23T19:48:13.805Z,-23316.88
2024-02-23T19:50:17.829Z,-23313.38
2024-02-23T19:52:19.658Z,-23312.91
2024-02-23T19:54:22.505Z,-23314.66
2024-02-23T19:56:29.655Z,-23317.84
2024-02-23T19:58:32.421Z,-23316.41
2024-02-23T20:00:36.499Z,-23314.19
2024-02-23T20:02:39.455Z,-23311.63
2024-02-23T20:04:43.017Z,-23312.44
2024-02-23T20:06:49.602Z,-23305.75
2024-02-23T20:08:52.477Z,-23305.41
2024-02-23T20:10:55.413Z,-23307.31
2024-02-23T20:12:58.764Z,-23305.41
2024-02-23T20:15:04.243Z,-23307.00
2024-02-23T20:17:11.445Z,-23302.88
2024-02-23T20:19:15.431Z,-23303.34
2024-02-23T20:21:18.252Z,-23301.59
2024-02-23T20:23:21.051Z,-23303.50
2024-02-23T20:25:23.789Z,-23303.66
2024-02-23T20:27:26.531Z,-23303.81
2024-02-23T20:29:32.163Z,-23304.78
2024-02-23T20:31:42.309Z,-23302.88
2024-02-23T20:33:46.595Z,-23302.88
2024-02-23T20:35:49.723Z,-23304.31
2024-02-23T20:37:52.572Z,-23301.75
2024-02-23T20:39:57.933Z,-23299.38
2024-02-23T20:42:00.783Z,-23298.41
2024-02-23T20:44:03.626Z,-23298.41
2024-02-23T20:46:06.430Z,-23298.41
2024-02-23T20:48:10.972Z,-23299.69
2024-02-23T20:50:15.416Z,-23299.69
2024-02-23T20:52:19.543Z,-23299.84
2024-02-23T20:54:21.496Z,-23302.88
2024-02-23T20:56:24.377Z,-23298.88
2024-02-23T20:58:27.211Z,-23300.00
2024-02-23T21:00:29.099Z,-23295.88
2024-02-23T21:02:31.931Z,-23300.97
2024-02-23T21:04:35.887Z,-23292.53
2024-02-23T21:06:40.372Z,-23297.94
2024-02-23T21:08:48.810Z,-23295.38
2024-02-23T21:10:51.673Z,-23295.22
2024-02-23T21:12:54.633Z,-23294.09
2024-02-23T21:15:00.398Z,-23291.09
2024-02-23T21:17:03.361Z,-23287.41
2024-02-23T21:19:06.205Z,-23289.81
2024-02-23T21:21:09.645Z,-23292.03
2024-02-23T21:23:14.652Z,-23288.69
2024-02-23T21:25:17.464Z,-23285.97
2024-02-23T21:27:20.241Z,-23289.31
2024-02-23T21:29:23.048Z,-23289.50
2024-02-23T21:31:25.853Z,-23286.63
2024-02-23T21:33:29.580Z,-23287.09
2024-02-23T21:35:38.465Z,-23287.75
2024-02-23T21:37:41.273Z,-23288.53
2024-02-23T21:39:45.309Z,-23287.91
2024-02-23T21:41:48.096Z,-23287.25
2024-02-23T21:43:50.881Z,-23285.34
2024-02-23T21:45:56.386Z,-23286.31
2024-02-23T21:47:58.653Z,-23286.31
2024-02-23T21:50:01.930Z,-23285.19
2024-02-23T21:52:06.529Z,-23282.81
2024-02-23T21:54:09.739Z,-23280.88
2024-02-23T21:56:13.834Z,-23282.16
2024-02-23T21:58:19.240Z,-23279.78
2024-02-23T22:00:23.051Z,-23281.84
2024-02-23T22:02:28.667Z,-23278.97
2024-02-23T22:04:30.660Z,-23279.59
2024-02-23T22:06:33.670Z,-23277.22
2024-02-23T22:08:36.519Z,-23278.97
2024-02-23T22:10:39.394Z,-23278.66
2024-02-23T22:12:45.570Z,-23280.25
2024-02-23T22:14:52.680Z,-23276.75
2024-02-23T22:16:55.415Z,-23279.28
2024-02-23T22:18:58.424Z,-23280.56
2024-02-23T22:21:01.828Z,-23278.34
2024-02-23T22:23:04.940Z,-23275.47
2024-02-23T22:25:08.157Z,-23269.09
2024-02-23T22:27:10.988Z,-23268.13
2024-02-23T22:29:15.122Z,-23267.81
2024-02-23T22:31:17.893Z,-23269.09
2024-02-23T22:33:20.993Z,-23269.56
2024-02-23T22:35:25.804Z,-23274.19
2024-02-23T22:37:28.563Z,-23276.44
2024-02-23T22:39:30.301Z,-23274.50
2024-02-23T22:41:33.721Z,-23276.25
2024-02-23T22:43:36.635Z,-23274.34
2024-02-23T22:45:41.074Z,-23274.19
2024-02-23T22:47:43.911Z,-23273.22
2024-02-23T22:49:46.693Z,-23274.66
2024-02-23T22:51:49.647Z,-23272.75
2024-02-23T22:53:58.438Z,-23268.44
2024-02-23T22:56:01.774Z,-23269.88
2024-02-23T22:58:05.160Z,-23266.22
2024-02-23T23:00:12.520Z,-23264.47
2024-02-23T23:02:16.709Z,-23262.06
2024-02-23T23:04:19.545Z,-23260.81
2024-02-23T23:06:28.032Z,-23259.38
2024-02-23T23:08:37.281Z,-23260.81
2024-02-23T23:10:47.644Z,-23261.59
2024-02-23T23:12:50.378Z,-23259.53
2024-02-23T23:14:53.118Z,-23257.94
2024-02-23T23:16:56.023Z,-23257.94
2024-02-23T23:19:00.529Z,-23256.34
2024-02-23T23:21:06.886Z,-23258.56
2024-02-23T23:23:09.740Z,-23257.28
2024-02-23T23:25:12.904Z,-23258.25
2024-02-23T23:27:17.260Z,-23256.97
2024-02-23T23:29:19.954Z,-23258.72
2024-02-23T23:31:24.935Z,-23256.66
2024-02-23T23:33:29.608Z,-23257.28
2024-02-23T23:35:33.785Z,-23255.22